Time;durP1;ratioP1;P1;durP2;ratioP2;P2;SDS_P1;SDS_P2;PMS_P1;PMS_P2;Temp;Humidity;BMP_temperature;BMP_pressure;BME280_temperature;BME280_humidity;BME280_pressure;Samples;Min_cycle;Max_cycle;Signal;HPM_P1;HPM_P2
2022/10/31 00:01:27;;;;;;;;;6.67;6.67;;;;;18.39;59.59;101495.56;5051169;28;45300;-66
2022/10/31 00:03:53;;;;;;;;;3.33;3.33;;;;;18.37;59.90;101491.06;5052521;28;45479;-65
2022/10/31 00:06:20;;;;;;;;;8.00;8.00;;;;;18.22;59.58;101476.53;5062655;28;44962;-65
2022/10/31 00:08:55;;;;;;;;;8.67;6.33;;;;;18.34;60.17;101500.06;5049619;28;45351;-66
2022/10/31 00:11:21;;;;;;;;;7.00;6.00;;;;;18.34;59.90;101497.34;5052280;28;45133;-65
2022/10/31 00:13:46;;;;;;;;;7.00;6.00;;;;;18.30;59.83;101497.34;5054402;28;45172;-68
2022/10/31 00:16:17;;;;;;;;;11.33;7.33;;;;;18.33;60.04;101518.97;5054645;28;45509;-67
2022/10/31 00:18:42;;;;;;;;;7.33;7.00;;;;;18.30;60.16;101509.06;5054213;28;45300;-68
2022/10/31 00:21:07;;;;;;;;;11.00;6.33;;;;;18.28;60.30;101502.75;5054872;28;45447;-65
2022/10/31 00:23:33;;;;;;;;;11.33;10.00;;;;;18.29;60.29;101503.66;5054629;28;44991;-63
2022/10/31 00:26:02;;;;;;;;;10.67;8.67;;;;;18.26;60.11;101493.69;5053969;28;57968;-64
2022/10/31 00:28:27;;;;;;;;;10.67;7.67;;;;;18.24;60.25;101490.97;5055058;28;45211;-63
2022/10/31 00:30:52;;;;;;;;;12.00;10.00;;;;;18.24;60.62;101495.50;5054260;28;45879;-68
2022/10/31 00:33:18;;;;;;;;;12.00;8.33;;;;;18.22;60.58;101490.06;5055962;28;45191;-66
2022/10/31 00:35:49;;;;;;;;;6.00;6.00;;;;;18.23;60.45;101488.25;5045582;28;45081;-66
2022/10/31 00:38:14;;;;;;;;;12.67;11.33;;;;;17.41;60.56;101347.09;5054946;28;45319;-68
2022/10/31 00:40:39;;;;;;;;;10.33;7.67;;;;;18.19;60.69;101490.03;5053891;28;62093;-67
2022/10/31 00:43:05;;;;;;;;;5.00;5.00;;;;;18.05;60.38;101459.31;5058912;28;45136;-67
2022/10/31 00:45:30;;;;;;;;;7.33;5.33;;;;;18.21;60.51;101492.75;5065577;28;59364;-64
2022/10/31 00:47:55;;;;;;;;;10.67;9.67;;;;;18.10;60.43;101470.13;5057852;28;44957;-64
2022/10/31 00:50:21;;;;;;;;;7.00;6.00;;;;;18.04;60.56;101465.59;5060610;28;45086;-65
2022/10/31 00:52:46;;;;;;;;;6.00;6.00;;;;;18.24;60.59;101493.69;5054275;28;45425;-66
2022/10/31 00:55:11;;;;;;;;;10.33;6.00;;;;;18.24;60.75;101495.50;5054308;28;51325;-65
2022/10/31 00:57:37;;;;;;;;;10.67;9.33;;;;;18.22;60.50;101491.88;5054130;28;45136;-66
2022/10/31 01:00:03;;;;;;;;;11.33;11.33;;;;;18.16;60.47;101486.41;5053717;28;47280;-65
2022/10/31 01:02:28;;;;;;;;;8.00;8.00;;;;;18.20;60.85;101493.69;5054541;28;45089;-67
2022/10/31 01:04:53;;;;;;;;;9.67;8.33;;;;;18.19;61.07;101495.44;5056517;28;45105;-67
2022/10/31 01:07:19;;;;;;;;;9.00;8.33;;;;;18.20;61.06;101489.16;5055235;28;45233;-67
2022/10/31 01:09:44;;;;;;;;;8.67;8.33;;;;;18.15;61.03;101466.59;5051257;28;46298;-65
2022/10/31 01:12:09;;;;;;;;;13.67;10.00;;;;;18.23;60.90;101481.06;5053988;28;65644;-66
2022/10/31 01:14:35;;;;;;;;;11.67;9.67;;;;;18.24;61.08;101474.75;5062640;28;45085;-66
2022/10/31 01:17:00;;;;;;;;;12.00;9.67;;;;;18.25;61.31;101464.84;5056335;28;45223;-66
2022/10/31 01:19:25;;;;;;;;;13.67;12.00;;;;;18.12;61.36;101438.63;5059106;28;45006;-67
2022/10/31 01:21:54;;;;;;;;;14.67;9.33;;;;;18.23;61.47;101456.72;5036801;28;45176;-66
2022/10/31 01:24:19;;;;;;;;;10.00;9.33;;;;;18.21;61.43;101447.72;5053935;28;45259;-68
2022/10/31 01:26:44;;;;;;;;;12.67;11.00;;;;;18.29;61.54;101452.25;5051219;28;45692;-67
2022/10/31 01:29:10;;;;;;;;;9.33;8.00;;;;;18.28;61.58;101454.06;5053589;28;56228;-65
2022/10/31 01:31:38;;;;;;;;;11.67;11.00;;;;;18.30;61.52;101444.13;5053438;28;50330;-68
2022/10/31 01:34:04;;;;;;;;;18.33;10.67;;;;;18.32;61.29;101442.34;5056532;28;45438;-66
2022/10/31 01:36:34;;;;;;;;;10.67;9.33;;;;;18.32;61.76;101438.75;5053900;28;45030;-68
2022/10/31 01:39:08;;;;;;;;;10.67;10.67;;;;;18.28;61.74;101447.72;5058289;28;45596;-69
2022/10/31 01:41:36;;;;;;;;;9.33;9.33;;;;;18.17;61.63;101428.75;5051854;28;45089;-65
2022/10/31 01:44:23;;;;;;;;;13.33;11.67;;;;;18.02;61.92;101402.50;5064725;28;45121;-66
2022/10/31 01:46:54;;;;;;;;;11.00;9.67;;;;;18.27;61.90;101444.13;5053796;28;45077;-68
2022/10/31 01:49:31;;;;;;;;;14.33;13.67;;;;;18.19;61.88;101419.72;5053621;28;45393;-67
2022/10/31 01:52:25;;;;;;;;;11.33;11.00;;;;;18.32;61.76;101427.91;5066083;28;45388;-67
2022/10/31 01:55:23;;;;;;;;;12.00;9.33;;;;;18.23;61.86;101401.72;5049799;28;45151;-66
2022/10/31 01:57:53;;;;;;;;;12.00;11.33;;;;;18.29;62.01;101414.38;5053502;28;45219;-66
2022/10/31 02:00:21;;;;;;;;;12.00;9.33;;;;;18.32;61.90;101426.13;5052548;28;45841;-66
2022/10/31 02:02:49;;;;;;;;;15.67;9.33;;;;;18.28;62.02;101418.91;5054872;28;45131;-64
2022/10/31 02:05:18;;;;;;;;;12.67;11.33;;;;;18.29;62.25;101427.91;5053237;28;44992;-65
2022/10/31 02:08:13;;;;;;;;;13.67;11.00;;;;;18.31;62.25;101431.50;5050570;28;45002;-68
2022/10/31 02:10:40;;;;;;;;;15.33;11.33;;;;;18.32;62.29;101430.63;5064948;28;45552;-65
2022/10/31 02:13:07;;;;;;;;;8.00;8.00;;;;;18.13;62.40;101403.47;5052512;28;45285;-66
2022/10/31 02:15:34;;;;;;;;;11.00;10.00;;;;;18.23;62.51;101418.84;5052557;28;45119;-68
2022/10/31 02:18:00;;;;;;;;;11.67;10.33;;;;;18.26;62.37;101417.06;5052814;28;45156;-65
2022/10/31 02:20:49;;;;;;;;;15.00;11.67;;;;;18.26;62.46;101425.19;5052331;28;45098;-66
2022/10/31 02:23:31;;;;;;;;;9.67;9.33;;;;;18.20;62.76;101413.44;5052550;28;44888;-67
2022/10/31 02:26:24;;;;;;;;;13.67;10.67;;;;;18.15;62.81;101393.56;5065319;28;45188;-66
2022/10/31 02:29:04;;;;;;;;;10.33;10.33;;;;;18.20;62.97;101390.91;5051984;28;47005;-65
2022/10/31 02:31:53;;;;;;;;;10.67;9.33;;;;;18.20;62.70;101391.78;5055900;28;45265;-65
2022/10/31 02:34:31;;;;;;;;;13.33;11.00;;;;;18.24;62.91;101399.00;5021535;28;45222;-68
2022/10/31 02:37:06;;;;;;;;;14.33;12.00;;;;;18.21;62.41;101393.63;5052979;28;45198;-67
2022/10/31 02:39:46;;;;;;;;;12.33;11.00;;;;;17.95;62.62;101358.31;5050486;28;45379;-65
2022/10/31 02:42:18;;;;;;;;;11.67;11.67;;;;;17.65;62.96;101302.22;5051117;28;45679;-64
2022/10/31 02:44:53;;;;;;;;;17.33;11.33;;;;;18.23;62.88;101391.81;5062102;28;45324;-65
2022/10/31 02:47:24;;;;;;;;;16.00;11.33;;;;;18.22;62.68;101392.69;5051809;28;45020;-66
2022/10/31 02:50:00;;;;;;;;;14.00;10.33;;;;;18.24;62.53;101381.88;5054034;28;45086;-65
2022/10/31 02:52:34;;;;;;;;;15.00;13.33;;;;;18.26;62.24;101377.38;5055306;28;45121;-64
2022/10/31 02:55:24;;;;;;;;;18.00;12.67;;;;;18.26;62.21;101385.50;5051855;28;45160;-67
2022/10/31 02:57:56;;;;;;;;;12.00;12.00;;;;;18.24;62.16;101368.38;5052197;28;45061;-64
2022/10/31 03:00:22;;;;;;;;;16.00;11.00;;;;;18.25;62.09;101370.19;5055990;28;45033;-66
2022/10/31 03:02:53;;;;;;;;;25.33;23.00;;;;;18.33;61.84;101386.44;5037044;28;45479;-64
2022/10/31 03:05:43;;;;;;;;;15.33;14.00;;;;;18.27;61.86;101372.91;5048510;28;45161;-64
2022/10/31 03:08:27;;;;;;;;;14.00;11.33;;;;;18.33;61.96;101376.53;5051732;28;45013;-64
2022/10/31 03:11:03;;;;;;;;;14.67;12.67;;;;;18.32;61.79;101376.53;5056907;28;45150;-65
2022/10/31 03:13:34;;;;;;;;;15.00;11.00;;;;;18.32;61.71;101373.81;5049736;28;46337;-66
2022/10/31 03:16:23;;;;;;;;;14.00;11.33;;;;;18.34;61.66;101377.44;5049878;28;45194;-65
2022/10/31 03:19:08;;;;;;;;;10.33;8.33;;;;;18.29;61.93;101365.69;5051251;28;45791;-66
2022/10/31 03:21:53;;;;;;;;;21.33;15.00;;;;;18.29;62.35;101369.28;5053544;28;44943;-65
2022/10/31 03:24:20;;;;;;;;;12.67;11.00;;;;;18.31;62.07;101369.28;5060423;28;46168;-64
2022/10/31 03:26:50;;;;;;;;;15.00;11.00;;;;;18.30;62.00;101367.50;5052066;28;45246;-67
2022/10/31 03:29:21;;;;;;;;;19.33;15.00;;;;;18.02;62.23;101321.41;5051585;28;44975;-67
2022/10/31 03:31:57;;;;;;;;;19.00;13.67;;;;;18.24;62.32;101361.13;5055631;28;45146;-67
2022/10/31 03:34:22;;;;;;;;;16.00;14.67;;;;;18.28;62.26;101362.09;5054979;28;46319;-66
2022/10/31 03:36:51;;;;;;;;;15.00;15.00;;;;;18.28;62.28;101358.47;5052708;28;44877;-67
2022/10/31 03:39:21;;;;;;;;;13.67;13.67;;;;;18.11;62.10;101324.13;5056135;28;45132;-66
2022/10/31 03:41:53;;;;;;;;;11.00;11.00;;;;;18.26;61.91;101346.72;5056257;28;45326;-65
2022/10/31 03:44:22;;;;;;;;;19.00;11.00;;;;;18.32;62.12;101352.19;5063808;28;44983;-66
2022/10/31 03:46:48;;;;;;;;;15.00;12.33;;;;;18.32;62.20;101338.66;5053278;28;44923;-68
2022/10/31 03:49:14;;;;;;;;;15.67;14.33;;;;;18.31;62.21;101336.84;5052510;28;45090;-63
2022/10/31 03:51:56;;;;;;;;;13.67;12.00;;;;;18.31;62.05;101340.44;5070333;28;45072;-66
2022/10/31 03:54:37;;;;;;;;;17.00;12.33;;;;;18.31;62.18;101343.13;5053793;28;45332;-68
2022/10/31 03:57:23;;;;;;;;;16.33;13.33;;;;;18.26;62.22;101330.50;5062360;28;44870;-66
2022/10/31 03:59:55;;;;;;;;;15.00;15.00;;;;;18.29;62.35;101334.13;5050421;28;45257;-65
2022/10/31 04:02:25;;;;;;;;;15.67;15.33;;;;;18.29;62.64;101330.53;5051610;28;45031;-67
2022/10/31 04:04:51;;;;;;;;;15.67;14.00;;;;;18.29;62.21;101334.13;5051679;28;45358;-63
2022/10/31 04:07:18;;;;;;;;;16.67;14.67;;;;;18.30;62.63;101337.75;5054837;28;46297;-66
2022/10/31 04:09:46;;;;;;;;;24.33;18.33;;;;;18.29;62.50;101328.72;5053668;28;45101;-64
2022/10/31 04:12:15;;;;;;;;;21.33;14.67;;;;;18.26;62.76;101327.81;5051769;28;44978;-66
2022/10/31 04:14:43;;;;;;;;;15.67;13.67;;;;;17.88;62.45;101259.13;5039380;28;46417;-64
2022/10/31 04:17:13;;;;;;;;;16.67;11.33;;;;;18.13;62.66;101302.50;5064403;28;45080;-67
2022/10/31 04:19:38;;;;;;;;;13.33;11.00;;;;;18.04;62.93;101285.34;5050949;28;44961;-62
2022/10/31 04:22:04;;;;;;;;;16.33;14.00;;;;;18.24;62.72;101325.97;5051447;28;45140;-64
2022/10/31 04:24:29;;;;;;;;;24.25;24.25;;;;;18.26;62.75;101325.09;5041888;28;46490;-65
2022/10/31 04:26:54;;;;;;;;;16.00;15.00;;;;;18.28;62.75;101334.09;5063991;28;46520;-69
2022/10/31 04:29:20;;;;;;;;;15.33;12.33;;;;;18.14;62.65;101307.03;5051748;28;45141;-68
2022/10/31 04:31:45;;;;;;;;;17.00;12.33;;;;;18.26;62.62;101316.97;5051121;28;45181;-67
2022/10/31 04:34:10;;;;;;;;;14.33;12.67;;;;;18.28;62.70;101323.28;5050872;28;45869;-67
2022/10/31 04:36:36;;;;;;;;;16.67;14.00;;;;;17.93;62.25;101265.47;5050699;28;45236;-67
2022/10/31 04:39:01;;;;;;;;;13.33;13.33;;;;;18.26;62.76;101323.28;5053357;28;45212;-65
2022/10/31 04:41:26;;;;;;;;;15.33;12.67;;;;;18.27;62.59;101318.81;5060855;28;45077;-67
2022/10/31 04:43:52;;;;;;;;;17.33;13.67;;;;;18.24;62.86;101317.88;5062037;28;45777;-66
2022/10/31 04:46:17;;;;;;;;;17.00;14.67;;;;;18.23;62.52;101318.78;5047648;28;45096;-66
2022/10/31 04:48:42;;;;;;;;;19.00;15.00;;;;;18.16;62.71;101299.81;5028199;28;45348;-67
2022/10/31 04:51:08;;;;;;;;;15.67;14.00;;;;;18.18;62.70;101298.94;5054285;28;45148;-65
2022/10/31 04:53:33;;;;;;;;;16.33;14.67;;;;;18.18;62.56;101296.22;5053791;28;45489;-65
2022/10/31 04:56:00;;;;;;;;;16.33;14.00;;;;;18.18;62.50;101298.00;5060005;28;45382;-67
2022/10/31 04:58:26;;;;;;;;;17.00;12.33;;;;;18.16;62.63;101291.69;5057127;28;45001;-67
2022/10/31 05:00:55;;;;;;;;;19.33;19.00;;;;;18.13;62.97;101281.78;5055856;28;44982;-67
2022/10/31 05:03:21;;;;;;;;;12.67;9.67;;;;;18.09;62.80;101276.34;5054180;28;45161;-63
2022/10/31 05:05:46;;;;;;;;;15.00;13.67;;;;;18.13;62.86;101279.09;5054161;28;45101;-65
2022/10/31 05:08:13;;;;;;;;;17.33;14.00;;;;;18.10;62.82;101267.31;5054317;28;45283;-65
2022/10/31 05:10:39;;;;;;;;;14.67;13.67;;;;;18.12;62.78;101273.66;5053876;28;45147;-65
2022/10/31 05:13:04;;;;;;;;;17.50;12.25;;;;;18.10;63.00;101281.78;5057708;28;45566;-67
2022/10/31 05:15:30;;;;;;;;;18.33;14.67;;;;;18.12;63.00;101285.38;5054611;28;45341;-68
2022/10/31 05:17:55;;;;;;;;;20.67;17.33;;;;;18.13;62.52;101275.47;5056074;28;45209;-64
2022/10/31 05:20:23;;;;;;;;;16.67;13.00;;;;;18.11;62.71;101261.03;5054545;28;45190;-66
2022/10/31 05:22:53;;;;;;;;;14.67;12.67;;;;;18.00;62.76;101240.28;5053387;28;45783;-65
2022/10/31 05:25:20;;;;;;;;;10.67;10.00;;;;;18.12;62.60;101257.44;5054201;28;45165;-67
2022/10/31 05:27:48;;;;;;;;;13.33;11.33;;;;;18.11;62.83;101253.81;5055007;28;45106;-67
2022/10/31 05:30:18;;;;;;;;;13.00;13.00;;;;;18.10;62.83;101245.69;5053342;28;45060;-66
2022/10/31 05:32:45;;;;;;;;;11.67;11.67;;;;;18.11;62.96;101236.69;5033760;28;47477;-65
2022/10/31 05:35:23;;;;;;;;;17.33;12.33;;;;;18.10;62.38;101234.88;5045303;28;45974;-65
2022/10/31 05:37:49;;;;;;;;;12.00;10.33;;;;;18.09;62.69;101231.28;5031248;28;45290;-67
2022/10/31 05:40:15;;;;;;;;;12.33;12.33;;;;;17.86;62.51;101205.03;5046033;28;45367;-66
2022/10/31 05:42:42;;;;;;;;;16.67;11.67;;;;;17.96;62.73;101227.63;5063135;28;45250;-68
2022/10/31 05:45:10;;;;;;;;;17.33;11.33;;;;;18.02;62.77;101238.47;5061217;28;45127;-66
2022/10/31 05:47:36;;;;;;;;;14.67;10.00;;;;;18.09;62.47;101243.91;5034748;28;45162;-65
2022/10/31 05:50:01;;;;;;;;;9.33;9.33;;;;;17.88;62.46;101221.28;5058724;28;45049;-63
2022/10/31 05:52:26;;;;;;;;;12.00;12.00;;;;;17.93;62.88;101233.03;5064049;28;45321;-64
2022/10/31 05:54:52;;;;;;;;;14.00;11.67;;;;;17.96;63.17;101237.53;5056771;28;45124;-65
2022/10/31 05:57:17;;;;;;;;;11.33;11.33;;;;;17.72;62.96;101189.66;5061401;28;45017;-65
2022/10/31 05:59:42;;;;;;;;;17.33;13.67;;;;;18.00;62.79;101236.66;5053404;28;45144;-63
2022/10/31 06:02:08;;;;;;;;;9.00;9.00;;;;;18.02;63.11;101229.47;5051810;28;45191;-60
2022/10/31 06:04:33;;;;;;;;;12.00;6.33;;;;;18.03;63.02;101232.19;5051891;28;61677;-65
2022/10/31 06:06:58;;;;;;;;;8.00;8.00;;;;;18.05;62.73;101224.97;5054337;28;49347;-64
2022/10/31 06:09:24;;;;;;;;;11.33;10.67;;;;;17.93;62.36;101196.97;5064101;28;45248;-61
2022/10/31 06:11:49;;;;;;;;;10.33;8.67;;;;;18.04;62.30;101224.97;5067090;28;45338;-65
2022/10/31 06:14:14;;;;;;;;;28.75;21.75;;;;;17.91;62.57;101213.19;5062249;28;45215;-64
2022/10/31 06:16:40;;;;;;;;;14.00;10.67;;;;;17.93;62.65;101216.78;5063636;28;53436;-65
2022/10/31 06:19:05;;;;;;;;;10.33;10.33;;;;;17.83;62.38;101196.91;5067447;28;45112;-66
2022/10/31 06:21:30;;;;;;;;;10.00;10.00;;;;;17.92;62.32;101211.38;5065947;28;45287;-66
2022/10/31 06:23:56;;;;;;;;;11.00;5.67;;;;;17.73;62.05;101164.44;5068655;28;45050;-68
2022/10/31 06:26:21;;;;;;;;;9.67;8.00;;;;;17.83;61.23;101179.78;5062649;28;45044;-67
2022/10/31 06:28:47;;;;;;;;;7.67;4.67;;;;;17.98;61.39;101206.00;5064277;28;45025;-67
2022/10/31 06:31:12;;;;;;;;;6.00;5.33;;;;;17.90;61.01;101199.66;5053443;28;45371;-63
2022/10/31 06:33:37;;;;;;;;;8.67;5.67;;;;;17.94;61.21;101210.50;5053577;28;45266;-63
2022/10/31 06:36:03;;;;;;;;;5.00;5.00;;;;;17.97;61.12;101215.03;5053068;28;59763;-64
2022/10/31 06:38:29;;;;;;;;;6.33;6.00;;;;;17.98;61.20;101211.41;5056703;28;45085;-61
2022/10/31 06:40:54;;;;;;;;;8.00;6.33;;;;;17.90;61.11;101194.25;5059463;28;45035;-65
2022/10/31 06:43:21;;;;;;;;;7.33;5.00;;;;;17.92;60.94;101201.50;5063420;28;46491;-69
2022/10/31 06:45:46;;;;;;;;;8.67;7.67;;;;;17.89;61.22;101206.88;5056039;28;45105;-65
2022/10/31 06:48:12;;;;;;;;;8.00;6.33;;;;;17.85;61.53;101200.53;5060292;28;45045;-65
2022/10/31 06:50:37;;;;;;;;;6.33;6.33;;;;;17.89;61.39;101197.88;5058866;28;46018;-65
2022/10/31 06:53:03;;;;;;;;;12.00;10.67;;;;;17.82;61.56;101178.91;5059143;28;64911;-65
2022/10/31 06:55:28;;;;;;;;;8.67;6.00;;;;;17.93;61.63;101196.97;5059936;28;45450;-65
2022/10/31 06:58:01;;;;;;;;;8.33;8.33;;;;;17.94;61.95;101201.50;5057350;28;44971;-64
2022/10/31 07:00:28;;;;;;;;;9.33;8.67;;;;;17.93;61.74;101188.88;5058766;28;45371;-63
2022/10/31 07:02:54;;;;;;;;;11.33;10.00;;;;;17.92;62.29;101192.47;5061092;28;45083;-65
2022/10/31 07:05:20;;;;;;;;;9.33;9.33;;;;;17.92;62.25;101187.06;5065140;28;45085;-66
2022/10/31 07:07:45;;;;;;;;;7.33;6.67;;;;;17.95;62.34;101189.78;5059490;28;45084;-66
2022/10/31 07:10:11;;;;;;;;;7.67;7.67;;;;;17.89;62.47;101178.97;5060538;28;45171;-66
2022/10/31 07:12:36;;;;;;;;;9.33;8.67;;;;;17.89;62.72;101182.56;5053355;28;45175;-65
2022/10/31 07:15:01;;;;;;;;;9.67;6.67;;;;;17.95;62.73;101189.78;5059265;28;45255;-67
2022/10/31 07:17:26;;;;;;;;;15.33;12.33;;;;;17.63;62.97;101131.09;5058406;28;45169;-64
2022/10/31 07:19:52;;;;;;;;;9.33;8.67;;;;;17.91;63.08;101185.28;5063476;28;45478;-66
2022/10/31 07:22:17;;;;;;;;;16.00;11.00;;;;;17.84;63.12;101171.69;5055663;28;60607;-67
2022/10/31 07:24:42;;;;;;;;;10.00;9.33;;;;;17.92;63.21;101187.97;5058888;28;45633;-63
2022/10/31 07:27:08;;;;;;;;;9.00;9.00;;;;;17.89;63.75;101178.97;5055401;28;45286;-67
2022/10/31 07:29:33;;;;;;;;;15.33;11.00;;;;;17.93;63.44;101178.94;5058279;28;45955;-67
2022/10/31 07:31:59;;;;;;;;;16.00;10.67;;;;;17.90;63.66;101173.56;5053105;28;45211;-65
2022/10/31 07:34:24;;;;;;;;;16.33;12.67;;;;;17.92;63.41;101179.88;5052404;28;46710;-66
2022/10/31 07:36:50;;;;;;;;;9.67;9.67;;;;;17.68;63.37;101142.81;5051527;28;45120;-67
2022/10/31 07:39:15;;;;;;;;;16.33;10.67;;;;;17.90;63.44;101178.97;5051600;28;45359;-65
2022/10/31 07:41:41;;;;;;;;;9.00;9.00;;;;;17.93;63.73;101183.47;5039061;28;45449;-66
2022/10/31 07:44:06;;;;;;;;;12.00;10.33;;;;;17.97;63.44;101180.78;5059744;28;45126;-63
2022/10/31 07:46:32;;;;;;;;;13.00;11.33;;;;;17.99;63.39;101184.38;5058603;28;45390;-65
2022/10/31 07:48:57;;;;;;;;;12.00;10.67;;;;;18.00;63.29;101191.59;5054665;28;45669;-66
2022/10/31 07:51:23;;;;;;;;;13.00;11.33;;;;;17.99;63.26;101184.38;5061108;28;45171;-67
2022/10/31 07:53:49;;;;;;;;;16.00;14.00;;;;;18.03;63.31;101188.00;5061941;28;45413;-67
2022/10/31 07:56:14;;;;;;;;;17.33;11.67;;;;;17.75;63.34;101123.03;5049991;28;45299;-67
2022/10/31 07:58:40;;;;;;;;;13.00;13.00;;;;;17.80;63.41;101134.75;5063714;28;45868;-66
2022/10/31 08:01:05;;;;;;;;;18.00;13.67;;;;;18.00;63.15;101156.47;5034509;28;45603;-67
2022/10/31 08:03:30;;;;;;;;;14.67;14.67;;;;;18.09;63.22;101173.59;5052261;28;45349;-65
2022/10/31 08:05:56;;;;;;;;;14.33;14.33;;;;;18.11;63.25;101167.28;5061908;28;45553;-65
2022/10/31 08:08:23;;;;;;;;;18.67;16.00;;;;;18.16;63.00;101168.19;5044087;28;46892;-64
2022/10/31 08:10:49;;;;;;;;;16.00;14.00;;;;;18.22;63.02;101175.44;5054053;28;45161;-65
2022/10/31 08:13:15;;;;;;;;;35.33;26.67;;;;;18.23;63.06;101172.72;5059075;28;45104;-67
2022/10/31 08:15:41;;;;;;;;;22.67;21.33;;;;;18.06;63.08;101133.94;5050227;28;45214;-63
2022/10/31 08:18:12;;;;;;;;;19.33;17.00;;;;;18.33;62.74;101175.44;5057605;28;45231;-67
2022/10/31 08:20:38;;;;;;;;;22.67;18.67;;;;;18.35;62.68;101169.13;5056472;28;45309;-65
2022/10/31 08:23:04;;;;;;;;;19.00;17.00;;;;;18.35;62.25;101168.25;5056580;28;46196;-68
2022/10/31 08:25:32;;;;;;;;;25.67;22.00;;;;;18.34;62.49;101169.13;5060825;28;46009;-65
2022/10/31 08:27:58;;;;;;;;;23.00;20.67;;;;;18.36;62.50;101161.91;5057518;28;45226;-63
2022/10/31 08:30:26;;;;;;;;;41.75;36.75;;;;;18.38;62.79;101155.63;5049826;28;46300;-66
2022/10/31 08:33:11;;;;;;;;;26.33;23.00;;;;;18.37;62.77;101144.78;5068251;28;45138;-65
2022/10/31 08:35:37;;;;;;;;;31.50;28.50;;;;;18.37;62.70;101152.91;5045372;28;45537;-64
2022/10/31 08:38:03;;;;;;;;;28.00;22.33;;;;;18.40;62.55;101139.38;5062814;28;46212;-66
2022/10/31 08:40:30;;;;;;;;;18.00;17.00;;;;;18.42;62.62;101140.28;5063372;28;45294;-68
2022/10/31 08:43:18;;;;;;;;;17.33;16.00;;;;;18.37;62.35;101123.16;5064521;28;45246;-67
2022/10/31 08:45:47;;;;;;;;;17.00;12.33;;;;;18.38;62.28;101120.44;5063441;28;45171;-65
2022/10/31 08:48:15;;;;;;;;;18.33;15.67;;;;;18.38;62.38;101108.72;5061014;28;45250;-66
2022/10/31 08:50:44;;;;;;;;;24.75;23.00;;;;;18.44;62.29;101116.81;5065203;28;45119;-66
2022/10/31 08:53:11;;;;;;;;;15.67;13.33;;;;;18.32;62.20;101095.19;5065289;28;45392;-65
2022/10/31 08:55:38;;;;;;;;;18.00;14.00;;;;;18.46;62.49;101117.72;5066622;28;45254;-68
2022/10/31 08:58:06;;;;;;;;;22.00;18.33;;;;;18.48;62.34;101109.59;5063385;28;45143;-65
2022/10/31 09:00:32;;;;;;;;;25.00;20.33;;;;;18.41;62.60;101085.28;5062483;28;45754;-66
2022/10/31 09:03:03;;;;;;;;;16.00;15.67;;;;;18.45;62.48;101088.88;5061986;28;45349;-64
2022/10/31 09:05:28;;;;;;;;;20.00;18.33;;;;;18.45;62.75;101086.19;5057820;28;45000;-66
2022/10/31 09:08:02;;;;;;;;;25.67;25.67;;;;;18.33;62.75;101062.75;5062383;28;45350;-68
2022/10/31 09:10:29;;;;;;;;;27.00;22.00;;;;;18.49;62.79;101077.13;5058828;28;45933;-64
2022/10/31 09:12:59;;;;;;;;;26.33;20.33;;;;;18.52;62.64;101073.53;5070542;28;45073;-66
2022/10/31 09:15:26;;;;;;;;;25.67;19.33;;;;;18.37;62.47;101020.34;5065556;28;45575;-68
2022/10/31 09:17:51;;;;;;;;;24.00;24.00;;;;;18.63;62.03;101057.28;5069527;28;46630;-67
2022/10/31 09:20:17;;;;;;;;;21.33;17.33;;;;;18.64;61.64;101046.44;5058597;28;45053;-67
2022/10/31 09:22:44;;;;;;;;;29.00;21.33;;;;;18.55;62.29;101043.78;5067802;28;45136;-69
2022/10/31 09:25:09;;;;;;;;;19.67;18.33;;;;;18.49;62.65;101041.97;5065467;28;45152;-64
2022/10/31 09:27:35;;;;;;;;;25.33;18.33;;;;;18.48;62.37;101040.19;5068814;28;45173;-68
2022/10/31 09:30:00;;;;;;;;;25.67;20.00;;;;;18.46;62.79;101041.06;5068432;28;44970;-68
2022/10/31 09:32:25;;;;;;;;;19.33;17.33;;;;;18.48;62.64;101042.88;5061443;28;45099;-69
2022/10/31 09:34:51;;;;;;;;;20.67;18.00;;;;;18.50;62.19;101027.53;5062223;28;45677;-68
2022/10/31 09:37:16;;;;;;;;;21.33;16.33;;;;;18.44;62.64;101029.34;5063092;28;45435;-67
2022/10/31 09:39:41;;;;;;;;;21.00;18.00;;;;;17.64;62.65;100884.31;5063775;28;45184;-69
2022/10/31 09:42:33;;;;;;;;;16.67;14.00;;;;;18.53;62.73;101037.47;5044253;28;45266;-68
2022/10/31 09:45:23;;;;;;;;;19.67;17.00;;;;;18.51;62.55;101033.84;5060034;28;45298;-68
2022/10/31 09:48:00;;;;;;;;;18.00;15.00;;;;;18.48;62.88;101026.66;5070487;28;45420;-66
2022/10/31 09:50:43;;;;;;;;;25.67;19.33;;;;;18.51;62.77;101009.50;5038101;28;45106;-69
2022/10/31 09:53:23;;;;;;;;;23.67;18.67;;;;;18.52;62.77;100997.78;5062966;28;45263;-68
2022/10/31 09:55:50;;;;;;;;;17.00;16.33;;;;;18.67;62.45;100992.31;5060322;28;45171;-67
2022/10/31 09:58:23;;;;;;;;;18.67;17.00;;;;;18.82;62.11;100991.34;5061010;28;45387;-69
2022/10/31 10:00:48;;;;;;;;;24.67;17.00;;;;;18.83;61.67;100982.38;5054485;28;45038;-69
2022/10/31 10:03:35;;;;;;;;;19.67;17.67;;;;;18.71;61.44;100955.31;5055882;28;45183;-68
2022/10/31 10:06:24;;;;;;;;;20.00;17.33;;;;;19.05;61.63;101003.94;5047283;28;45092;-66
2022/10/31 10:08:49;;;;;;;;;20.00;19.00;;;;;19.09;61.02;101001.22;5039010;28;46594;-69
2022/10/31 10:11:21;;;;;;;;;24.33;20.67;;;;;19.20;61.07;101001.16;5067123;28;45093;-69
2022/10/31 10:13:58;;;;;;;;;18.33;15.00;;;;;19.28;60.85;100979.44;5070488;28;45006;-67
2022/10/31 10:16:48;;;;;;;;;28.00;17.00;;;;;19.30;60.39;100970.41;5070136;28;45128;-69
2022/10/31 10:19:35;;;;;;;;;16.00;14.67;;;;;19.29;60.59;100973.13;5061974;28;45585;-68
2022/10/31 10:22:22;;;;;;;;;19.00;17.00;;;;;19.34;60.14;100955.03;5061196;28;45380;-69
2022/10/31 10:24:47;;;;;;;;;20.00;12.33;;;;;19.43;60.23;100951.34;5068713;28;45092;-66
2022/10/31 10:27:31;;;;;;;;;14.33;13.33;;;;;19.51;59.57;100954.91;5055864;28;45491;-67
2022/10/31 10:30:06;;;;;;;;;20.33;16.00;;;;;19.58;59.25;100947.63;5060628;28;45609;-66
2022/10/31 10:32:43;;;;;;;;;18.00;14.33;;;;;19.61;59.05;100934.06;5051079;28;45251;-68
2022/10/31 10:35:27;;;;;;;;;21.67;13.67;;;;;19.72;58.99;100928.56;5050782;28;45219;-65
2022/10/31 10:38:00;;;;;;;;;19.00;16.33;;;;;19.56;58.71;100892.56;5058176;28;45578;-67
2022/10/31 10:40:28;;;;;;;;;15.67;15.33;;;;;19.78;58.55;100917.69;5062163;28;46487;-69
2022/10/31 10:43:22;;;;;;;;;14.67;14.67;;;;;19.86;58.35;100927.56;5054317;28;45116;-65
2022/10/31 10:49:00;;;;;;;;;21.00;15.33;;;;;20.11;58.09;100915.56;5060139;28;45291;-64
2022/10/31 10:51:39;;;;;;;;;17.67;15.67;;;;;20.22;57.36;100905.50;5050344;28;46344;-66
2022/10/31 10:54:24;;;;;;;;;17.33;14.67;;;;;20.33;56.87;100897.25;5047217;28;45466;-67
2022/10/31 10:57:18;;;;;;;;;18.00;15.67;;;;;20.39;56.70;100881.81;5063214;28;45450;-63
2022/10/31 10:59:45;;;;;;;;;19.67;16.00;;;;;20.54;56.01;100850.84;5025100;28;45588;-62
2022/10/31 11:02:18;;;;;;;;;20.33;14.00;;;;;20.71;55.85;100823.50;5048931;28;45599;-61
2022/10/31 11:04:47;;;;;;;;;17.33;14.33;;;;;20.88;54.92;100820.53;5062249;28;45227;-63
2022/10/31 11:07:12;;;;;;;;;19.00;10.67;;;;;21.12;54.66;100826.53;5048724;28;45162;-63
2022/10/31 11:09:38;;;;;;;;;16.33;13.00;;;;;21.20;53.66;100824.59;5050090;28;45129;-63
2022/10/31 11:12:17;;;;;;;;;18.33;13.67;;;;;21.18;53.56;100820.97;5048405;28;45850;-62
2022/10/31 11:14:47;;;;;;;;;15.00;12.67;;;;;21.16;53.17;100796.53;5059953;28;45261;-66
2022/10/31 11:17:35;;;;;;;;;13.00;13.00;;;;;20.84;53.18;100741.84;5033942;28;45243;-65
2022/10/31 11:20:13;;;;;;;;;20.00;17.00;;;;;21.30;53.10;100811.72;5055468;28;45092;-65
2022/10/31 11:22:40;;;;;;;;;16.33;13.67;;;;;21.21;52.89;100806.44;5049553;28;46224;-67
2022/10/31 11:25:22;;;;;;;;;21.00;15.33;;;;;21.22;53.21;100830.88;5050125;28;45134;-67
2022/10/31 11:27:59;;;;;;;;;22.67;15.67;;;;;21.14;52.94;100828.28;5030486;28;45619;-67